Time;durP1;ratioP1;P1;durP2;ratioP2;P2;SDS_P1;SDS_P2;PMS_P1;PMS_P2;Temp;Humidity;BMP_temperature;BMP_pressure;BME280_temperature;BME280_humidity;BME280_pressure;Samples;Min_cycle;Max_cycle;Signal;HPM_P1;HPM_P2
2021/06/30 00:00:46;;;;;;;13.97;12.77;;;;;;;;;;5055104;28;20787;-74
2021/06/30 00:03:12;;;;;;;14.50;13.30;;;;;;;;;;5053967;28;20516;-73
2021/06/30 00:05:38;;;;;;;14.03;12.70;;;;;;;;;;5054985;28;20414;-71
2021/06/30 00:08:05;;;;;;;15.27;13.97;;;;;;;;;;5054175;28;20423;-73
2021/06/30 00:10:31;;;;;;;17.87;16.27;;;;;;;;;;5054896;28;20461;-72
2021/06/30 00:12:57;;;;;;;19.03;17.20;;;;;;;;;;5054450;28;20416;-72
2021/06/30 00:15:25;;;;;;;17.93;16.30;;;;;;;;;;5054417;28;20411;-75
2021/06/30 00:17:51;;;;;;;17.60;16.10;;;;;;;;;;5054056;28;20419;-74
2021/06/30 00:20:17;;;;;;;18.73;17.00;;;;;;;;;;5054670;28;20910;-73
2021/06/30 00:22:43;;;;;;;19.27;17.57;;;;;;;;;;5054475;28;20466;-75
2021/06/30 00:25:11;;;;;;;19.67;17.97;;;;;;;;;;5054602;28;20904;-73
2021/06/30 00:27:37;;;;;;;18.57;16.87;;;;;;;;;;5053839;28;20440;-72
2021/06/30 00:30:04;;;;;;;17.50;15.90;;;;;;;;;;5054234;28;20466;-72
2021/06/30 00:32:30;;;;;;;18.07;16.40;;;;;;;;;;5053633;28;20418;-72
2021/06/30 00:34:56;;;;;;;18.50;16.70;;;;;;;;;;5054239;28;20415;-72
2021/06/30 00:37:22;;;;;;;18.17;16.67;;;;;;;;;;5053805;28;20776;-72
2021/06/30 00:39:48;;;;;;;17.47;15.97;;;;;;;;;;5053983;28;20912;-72
2021/06/30 00:42:14;;;;;;;18.40;16.77;;;;;;;;;;5052984;28;20975;-73
2021/06/30 00:44:43;;;;;;;17.50;16.10;;;;;;;;;;5053826;28;20406;-74
2021/06/30 00:47:10;;;;;;;17.80;16.20;;;;;;;;;;5053456;28;20426;-72
2021/06/30 00:49:36;;;;;;;17.50;15.83;;;;;;;;;;5053699;28;20565;-74
2021/06/30 00:52:02;;;;;;;17.67;16.10;;;;;;;;;;5054078;28;20415;-74
2021/06/30 00:54:28;;;;;;;17.67;16.07;;;;;;;;;;5053891;28;20440;-74
2021/06/30 00:56:55;;;;;;;16.73;15.27;;;;;;;;;;5053346;28;20501;-74
2021/06/30 00:59:21;;;;;;;20.97;18.87;;;;;;;;;;5053576;28;20451;-75
2021/06/30 01:01:48;;;;;;;21.60;19.50;;;;;;;;;;5053417;28;20414;-72
2021/06/30 01:04:14;;;;;;;21.00;19.17;;;;;;;;;;5053668;28;20411;-71
2021/06/30 01:06:40;;;;;;;23.53;21.23;;;;;;;;;;5053380;28;20412;-74
2021/06/30 01:09:07;;;;;;;23.23;21.13;;;;;;;;;;5053475;28;20427;-74
2021/06/30 01:11:33;;;;;;;25.07;22.57;;;;;;;;;;5053511;28;20407;-73
2021/06/30 01:14:01;;;;;;;26.70;24.13;;;;;;;;;;5053494;28;20799;-72
2021/06/30 01:16:27;;;;;;;28.30;24.37;;;;;;;;;;5052218;28;20809;-74
2021/06/30 01:18:53;;;;;;;29.47;26.50;;;;;;;;;;5052898;28;20828;-73
2021/06/30 01:21:19;;;;;;;27.27;24.33;;;;;;;;;;5053528;28;20411;-73
2021/06/30 01:23:45;;;;;;;28.17;25.27;;;;;;;;;;5053001;28;20817;-74
2021/06/30 01:26:12;;;;;;;29.80;26.70;;;;;;;;;;5053148;28;20957;-75
2021/06/30 01:28:38;;;;;;;30.90;25.80;;;;;;;;;;5052556;28;20426;-72
2021/06/30 01:31:06;;;;;;;30.80;26.90;;;;;;;;;;5053135;28;20421;-73
2021/06/30 01:33:32;;;;;;;32.77;27.37;;;;;;;;;;5053323;28;20415;-74
2021/06/30 01:35:58;;;;;;;32.57;27.97;;;;;;;;;;5053082;28;20432;-73
2021/06/30 01:38:25;;;;;;;39.23;29.50;;;;;;;;;;5052717;28;20418;-72
2021/06/30 01:40:52;;;;;;;31.07;25.93;;;;;;;;;;5053077;28;20499;-74
2021/06/30 01:43:19;;;;;;;35.80;28.23;;;;;;;;;;5052894;28;20462;-73
2021/06/30 01:45:45;;;;;;;36.37;29.53;;;;;;;;;;5053104;28;20423;-74
2021/06/30 01:48:11;;;;;;;44.33;31.97;;;;;;;;;;5052588;28;20435;-71
2021/06/30 01:50:37;;;;;;;37.03;29.57;;;;;;;;;;5052888;28;20434;-72
2021/06/30 01:53:05;;;;;;;42.00;30.00;;;;;;;;;;5053085;28;20779;-72
2021/06/30 01:55:31;;;;;;;44.27;31.40;;;;;;;;;;5053097;28;20915;-73
2021/06/30 01:57:58;;;;;;;61.17;34.67;;;;;;;;;;5052617;28;20525;-74
2021/06/30 02:00:24;;;;;;;48.10;32.97;;;;;;;;;;5052792;28;20425;-73
2021/06/30 02:02:51;;;;;;;52.73;34.67;;;;;;;;;;5052933;28;20463;-72
2021/06/30 02:05:18;;;;;;;51.37;32.63;;;;;;;;;;5052721;28;20911;-73
2021/06/30 02:07:49;;;;;;;54.07;33.43;;;;;;;;;;5052467;28;20490;-72
2021/06/30 02:10:15;;;;;;;50.90;34.33;;;;;;;;;;5039625;28;20423;-73
2021/06/30 02:12:42;;;;;;;57.90;36.17;;;;;;;;;;5052911;28;20772;-72
2021/06/30 02:15:10;;;;;;;55.27;34.50;;;;;;;;;;5053053;28;20744;-74
2021/06/30 02:17:36;;;;;;;54.07;35.00;;;;;;;;;;5052456;28;20412;-71
2021/06/30 02:20:03;;;;;;;59.87;36.13;;;;;;;;;;5052624;28;20431;-75
2021/06/30 02:22:29;;;;;;;55.90;35.23;;;;;;;;;;5052565;28;20804;-73
2021/06/30 02:24:58;;;;;;;57.20;34.67;;;;;;;;;;5051798;28;20412;-74
2021/06/30 02:27:24;;;;;;;60.47;34.20;;;;;;;;;;5052452;28;20413;-72
2021/06/30 02:29:50;;;;;;;55.27;35.80;;;;;;;;;;5052691;28;20842;-72
2021/06/30 02:32:16;;;;;;;71.83;41.00;;;;;;;;;;5052890;28;20496;-73
2021/06/30 02:34:42;;;;;;;59.30;37.47;;;;;;;;;;5052461;28;20418;-74
2021/06/30 02:37:08;;;;;;;62.80;35.70;;;;;;;;;;5052181;28;20418;-74
2021/06/30 02:39:34;;;;;;;57.47;35.87;;;;;;;;;;5052727;28;20992;-73
2021/06/30 02:42:00;;;;;;;56.93;35.80;;;;;;;;;;5052714;28;20418;-72
2021/06/30 02:44:27;;;;;;;57.13;34.80;;;;;;;;;;5052303;28;20415;-72
2021/06/30 02:46:53;;;;;;;53.27;35.90;;;;;;;;;;5052266;28;20996;-73
2021/06/30 02:49:19;;;;;;;54.03;36.40;;;;;;;;;;5052632;28;20540;-73
2021/06/30 02:51:45;;;;;;;49.37;33.90;;;;;;;;;;5052367;28;20411;-72
2021/06/30 02:54:11;;;;;;;57.17;35.37;;;;;;;;;;5053599;28;20491;-73
2021/06/30 02:56:37;;;;;;;63.93;37.57;;;;;;;;;;5055800;28;20494;-73
2021/06/30 02:59:03;;;;;;;54.57;35.87;;;;;;;;;;5056016;28;20445;-73
2021/06/30 03:01:29;;;;;;;57.70;36.37;;;;;;;;;;5056060;28;20441;-71
2021/06/30 03:03:55;;;;;;;61.77;34.50;;;;;;;;;;5055940;28;20800;-74
2021/06/30 03:06:21;;;;;;;53.70;33.23;;;;;;;;;;5055915;28;20415;-72
2021/06/30 03:08:49;;;;;;;49.43;31.60;;;;;;;;;;5055388;28;20443;-73
2021/06/30 03:11:15;;;;;;;45.83;30.63;;;;;;;;;;5056242;28;20419;-72
2021/06/30 03:13:41;;;;;;;48.50;32.40;;;;;;;;;;5055875;28;20883;-72
2021/06/30 03:16:08;;;;;;;47.30;31.77;;;;;;;;;;5054644;28;20995;-73
2021/06/30 03:18:34;;;;;;;46.70;32.10;;;;;;;;;;5053823;28;20989;-74
2021/06/30 03:21:00;;;;;;;48.33;31.77;;;;;;;;;;5053904;28;20412;-71
2021/06/30 03:23:27;;;;;;;44.53;30.70;;;;;;;;;;5054169;28;20454;-74
2021/06/30 03:25:53;;;;;;;44.20;31.83;;;;;;;;;;5054128;28;20453;-74
2021/06/30 03:28:19;;;;;;;45.73;31.50;;;;;;;;;;5053647;28;20444;-70
2021/06/30 03:30:45;;;;;;;42.57;31.17;;;;;;;;;;5053873;28;20498;-73
2021/06/30 03:33:11;;;;;;;45.50;30.50;;;;;;;;;;5054681;28;20450;-72
2021/06/30 03:35:37;;;;;;;38.43;28.93;;;;;;;;;;5055062;28;20464;-73
2021/06/30 03:38:03;;;;;;;42.10;30.63;;;;;;;;;;5055252;28;20486;-74
2021/06/30 03:40:30;;;;;;;38.00;28.27;;;;;;;;;;5055033;28;20460;-73
2021/06/30 03:42:56;;;;;;;39.30;30.97;;;;;;;;;;5055396;28;20492;-73
2021/06/30 03:45:22;;;;;;;36.27;27.67;;;;;;;;;;5055381;28;20772;-75
2021/06/30 03:47:48;;;;;;;41.57;28.50;;;;;;;;;;5055004;28;20411;-73
2021/06/30 03:50:14;;;;;;;35.80;26.70;;;;;;;;;;5054999;28;20454;-74
2021/06/30 03:52:40;;;;;;;38.67;28.87;;;;;;;;;;5055092;28;20435;-71
2021/06/30 03:55:06;;;;;;;33.33;26.27;;;;;;;;;;5054991;28;20440;-74
2021/06/30 03:57:32;;;;;;;39.03;27.00;;;;;;;;;;5054656;28;20430;-74
2021/06/30 03:59:59;;;;;;;36.30;28.03;;;;;;;;;;5054625;28;20815;-72
2021/06/30 04:02:25;;;;;;;31.20;25.97;;;;;;;;;;5053558;28;20462;-72
2021/06/30 04:04:51;;;;;;;34.17;25.87;;;;;;;;;;5054452;28;20415;-74
2021/06/30 04:07:17;;;;;;;28.77;25.00;;;;;;;;;;5053445;28;20423;-73
2021/06/30 04:09:43;;;;;;;30.50;25.30;;;;;;;;;;5054655;28;20816;-72
2021/06/30 04:12:09;;;;;;;27.63;23.83;;;;;;;;;;5054691;28;20779;-74
2021/06/30 04:14:35;;;;;;;28.63;25.63;;;;;;;;;;5053362;28;20954;-74
2021/06/30 04:17:01;;;;;;;27.90;24.50;;;;;;;;;;5054022;28;20502;-73
2021/06/30 04:19:27;;;;;;;28.80;25.70;;;;;;;;;;5054282;28;20436;-74
2021/06/30 04:21:53;;;;;;;26.20;23.40;;;;;;;;;;5054644;28;20780;-72
2021/06/30 04:24:19;;;;;;;23.07;20.73;;;;;;;;;;5054681;28;20411;-73
2021/06/30 04:26:45;;;;;;;24.90;22.30;;;;;;;;;;5053980;28;20421;-72
2021/06/30 04:29:11;;;;;;;24.33;21.77;;;;;;;;;;5053999;28;20431;-71
2021/06/30 04:31:37;;;;;;;23.00;20.70;;;;;;;;;;5054077;28;20427;-74
2021/06/30 04:34:03;;;;;;;25.70;23.00;;;;;;;;;;5053948;28;20420;-72
2021/06/30 04:36:29;;;;;;;23.50;21.20;;;;;;;;;;5054401;28;20415;-72
2021/06/30 04:38:55;;;;;;;25.80;23.10;;;;;;;;;;5053624;28;20450;-71
2021/06/30 04:41:21;;;;;;;25.97;23.30;;;;;;;;;;5053788;28;20429;-71
2021/06/30 04:43:47;;;;;;;29.37;25.10;;;;;;;;;;5053836;28;20469;-71
2021/06/30 04:46:13;;;;;;;25.73;23.13;;;;;;;;;;5054049;28;20415;-73
2021/06/30 04:48:39;;;;;;;25.30;22.70;;;;;;;;;;5053284;28;20482;-70
2021/06/30 04:51:06;;;;;;;23.50;21.00;;;;;;;;;;5054072;28;20410;-74
2021/06/30 04:53:32;;;;;;;26.57;23.60;;;;;;;;;;5053882;28;20415;-73
2021/06/30 04:55:59;;;;;;;25.87;23.23;;;;;;;;;;5053889;28;20473;-72
2021/06/30 04:58:25;;;;;;;25.93;23.33;;;;;;;;;;5051896;28;20973;-72
2021/06/30 05:00:54;;;;;;;29.03;26.10;;;;;;;;;;5054086;28;20485;-72
2021/06/30 05:03:20;;;;;;;27.50;24.80;;;;;;;;;;5053735;28;20541;-73
2021/06/30 05:05:46;;;;;;;28.73;25.73;;;;;;;;;;5053576;28;20879;-73
2021/06/30 05:08:12;;;;;;;27.17;24.30;;;;;;;;;;5053190;28;20498;-73
2021/06/30 05:10:38;;;;;;;25.10;22.50;;;;;;;;;;5053608;28;20411;-75
2021/06/30 05:13:04;;;;;;;24.47;22.07;;;;;;;;;;5053415;28;20420;-74
2021/06/30 05:15:30;;;;;;;26.73;23.87;;;;;;;;;;5053281;28;20412;-71
2021/06/30 05:17:56;;;;;;;26.43;23.70;;;;;;;;;;5053105;28;20411;-72
2021/06/30 05:20:22;;;;;;;25.33;22.60;;;;;;;;;;5053548;28;20915;-73
2021/06/30 05:22:48;;;;;;;28.27;25.30;;;;;;;;;;5053519;28;20549;-72
2021/06/30 05:25:14;;;;;;;26.60;23.70;;;;;;;;;;5053320;28;20848;-75
2021/06/30 05:27:41;;;;;;;26.30;23.60;;;;;;;;;;5052549;28;20880;-72
2021/06/30 05:30:07;;;;;;;28.60;25.70;;;;;;;;;;5053076;28;20431;-75
2021/06/30 05:32:33;;;;;;;25.50;22.80;;;;;;;;;;5053271;28;20779;-74
2021/06/30 05:34:59;;;;;;;24.63;21.17;;;;;;;;;;5053528;28;20425;-74
2021/06/30 05:37:25;;;;;;;27.97;21.70;;;;;;;;;;5052785;28;20408;-73
2021/06/30 05:39:51;;;;;;;26.23;23.50;;;;;;;;;;5053018;28;20926;-70
2021/06/30 05:42:17;;;;;;;25.73;22.97;;;;;;;;;;5053120;28;20451;-72
2021/06/30 05:44:43;;;;;;;26.63;23.93;;;;;;;;;;5053328;28;20481;-74
2021/06/30 05:47:09;;;;;;;24.63;22.10;;;;;;;;;;5052364;28;20429;-73
2021/06/30 05:49:35;;;;;;;27.23;24.37;;;;;;;;;;5052993;28;20435;-73
2021/06/30 05:52:01;;;;;;;27.30;24.40;;;;;;;;;;5052758;28;20847;-72
2021/06/30 05:54:27;;;;;;;26.03;23.30;;;;;;;;;;5051778;28;20427;-74
2021/06/30 05:56:53;;;;;;;25.40;22.80;;;;;;;;;;5052515;28;20758;-72
2021/06/30 05:59:19;;;;;;;25.57;22.90;;;;;;;;;;5052745;28;20458;-74
2021/06/30 06:01:45;;;;;;;26.87;23.97;;;;;;;;;;5052645;28;20418;-73
2021/06/30 06:04:11;;;;;;;23.90;21.40;;;;;;;;;;5052832;28;20455;-72
2021/06/30 06:06:37;;;;;;;24.47;21.87;;;;;;;;;;5052487;28;20421;-73
2021/06/30 06:09:03;;;;;;;29.90;23.80;;;;;;;;;;5052650;28;20466;-74
2021/06/30 06:11:29;;;;;;;26.40;23.67;;;;;;;;;;5052452;28;20423;-73
2021/06/30 06:13:55;;;;;;;24.20;21.80;;;;;;;;;;5052558;28;20473;-71
2021/06/30 06:16:22;;;;;;;25.30;22.60;;;;;;;;;;5045720;28;20427;-73
2021/06/30 06:18:49;;;;;;;29.03;23.33;;;;;;;;;;5046562;28;20468;-75
2021/06/30 06:21:15;;;;;;;25.60;23.00;;;;;;;;;;5045228;28;20431;-72
2021/06/30 06:23:42;;;;;;;24.53;21.73;;;;;;;;;;5044521;28;20467;-73
2021/06/30 06:26:08;;;;;;;25.03;22.43;;;;;;;;;;5038753;28;20473;-73
2021/06/30 06:28:35;;;;;;;26.03;23.23;;;;;;;;;;5046717;28;20443;-71
2021/06/30 06:31:02;;;;;;;25.10;22.50;;;;;;;;;;5053147;28;20423;-73
2021/06/30 06:33:28;;;;;;;25.20;22.50;;;;;;;;;;5052859;28;20420;-74
2021/06/30 06:35:54;;;;;;;24.17;21.77;;;;;;;;;;5052433;28;20463;-73
2021/06/30 06:38:23;;;;;;;23.77;21.37;;;;;;;;;;5052057;28;20512;-71
2021/06/30 06:40:49;;;;;;;26.77;23.70;;;;;;;;;;5052002;28;20439;-73
2021/06/30 06:43:15;;;;;;;24.40;21.80;;;;;;;;;;5052167;28;20501;-73
2021/06/30 06:45:41;;;;;;;26.10;22.20;;;;;;;;;;5052311;28;20411;-72
2021/06/30 06:48:07;;;;;;;24.10;21.37;;;;;;;;;;5051135;28;20504;-74
2021/06/30 06:50:33;;;;;;;25.07;22.40;;;;;;;;;;5052269;28;20420;-74
2021/06/30 06:52:59;;;;;;;24.37;21.87;;;;;;;;;;5052377;28;20419;-73
2021/06/30 06:55:26;;;;;;;24.80;22.30;;;;;;;;;;5052245;28;21236;-71
2021/06/30 06:57:52;;;;;;;23.07;20.17;;;;;;;;;;5051588;28;20417;-75
2021/06/30 07:00:19;;;;;;;26.13;23.47;;;;;;;;;;5052024;28;20443;-75
2021/06/30 07:02:46;;;;;;;24.30;21.57;;;;;;;;;;5051998;28;20463;-73
2021/06/30 07:05:12;;;;;;;25.77;22.97;;;;;;;;;;5052393;28;20765;-74
2021/06/30 07:07:41;;;;;;;26.33;22.50;;;;;;;;;;5051482;28;20745;-75
2021/06/30 07:10:08;;;;;;;24.10;21.60;;;;;;;;;;5039681;28;20544;-72
2021/06/30 07:12:34;;;;;;;28.87;23.03;;;;;;;;;;5051951;28;20420;-72
2021/06/30 07:15:01;;;;;;;26.50;22.20;;;;;;;;;;5052104;28;20419;-73
2021/06/30 07:17:28;;;;;;;28.30;25.30;;;;;;;;;;5046459;28;20419;-72
2021/06/30 07:19:54;;;;;;;27.47;24.50;;;;;;;;;;5050572;28;20452;-71
2021/06/30 07:22:20;;;;;;;26.63;23.80;;;;;;;;;;5051883;28;20482;-72
2021/06/30 07:24:46;;;;;;;25.80;23.03;;;;;;;;;;5051721;28;20823;-73
2021/06/30 07:27:12;;;;;;;29.70;24.20;;;;;;;;;;5051368;28;20415;-73
2021/06/30 07:29:38;;;;;;;26.57;23.33;;;;;;;;;;5051578;28;20463;-76
2021/06/30 07:32:04;;;;;;;27.70;24.17;;;;;;;;;;5051626;28;20424;-73
2021/06/30 07:34:31;;;;;;;26.03;23.23;;;;;;;;;;5051294;28;20415;-74
2021/06/30 07:36:58;;;;;;;26.27;23.60;;;;;;;;;;5051392;28;20415;-74
2021/06/30 07:39:24;;;;;;;25.07;22.47;;;;;;;;;;5051178;28;21284;-73
2021/06/30 07:41:51;;;;;;;25.53;23.00;;;;;;;;;;5049782;28;20955;-73
2021/06/30 07:44:17;;;;;;;25.73;23.03;;;;;;;;;;5051091;28;20471;-73
2021/06/30 07:46:43;;;;;;;25.03;22.63;;;;;;;;;;5050855;28;20418;-73
2021/06/30 07:49:09;;;;;;;24.73;22.20;;;;;;;;;;5051264;28;20924;-74
2021/06/30 07:51:35;;;;;;;25.40;22.50;;;;;;;;;;5051025;28;20414;-72
2021/06/30 07:54:01;;;;;;;25.63;23.13;;;;;;;;;;5050786;28;20469;-72
2021/06/30 07:56:34;;;;;;;25.00;22.37;;;;;;;;;;5050878;28;20415;-74
2021/06/30 07:59:07;;;;;;;24.17;21.23;;;;;;;;;;5051130;28;20538;-74
2021/06/30 08:01:33;;;;;;;23.73;21.23;;;;;;;;;;5051056;28;20605;-72
2021/06/30 08:03:59;;;;;;;25.17;22.47;;;;;;;;;;5050945;28;20498;-72
2021/06/30 08:06:25;;;;;;;25.13;22.47;;;;;;;;;;5050728;28;20927;-73
2021/06/30 08:08:52;;;;;;;25.43;22.73;;;;;;;;;;5048771;28;20451;-72
2021/06/30 08:11:19;;;;;;;27.30;23.93;;;;;;;;;;5050824;28;20461;-73
2021/06/30 08:13:45;;;;;;;26.60;23.80;;;;;;;;;;5050821;28;20840;-71
2021/06/30 08:16:11;;;;;;;27.40;24.40;;;;;;;;;;5045418;28;20444;-71
2021/06/30 08:18:37;;;;;;;28.30;24.23;;;;;;;;;;5050181;28;20439;-72
2021/06/30 08:21:03;;;;;;;25.60;22.80;;;;;;;;;;5050771;28;20423;-73
2021/06/30 08:23:29;;;;;;;23.83;21.33;;;;;;;;;;5048614;28;20471;-74
2021/06/30 08:25:55;;;;;;;24.60;22.00;;;;;;;;;;5049069;28;20423;-72
2021/06/30 08:28:25;;;;;;;25.87;22.63;;;;;;;;;;5050163;28;20427;-74
2021/06/30 08:30:52;;;;;;;24.87;22.17;;;;;;;;;;5046423;28;20412;-71
2021/06/30 08:33:18;;;;;;;23.00;20.60;;;;;;;;;;5050582;28;20430;-72
2021/06/30 08:35:44;;;;;;;23.60;21.20;;;;;;;;;;5048872;28;20927;-72
2021/06/30 08:38:10;;;;;;;23.10;20.80;;;;;;;;;;5049680;28;20428;-73
2021/06/30 08:40:39;;;;;;;24.87;22.27;;;;;;;;;;5050259;28;20423;-71
2021/06/30 08:43:07;;;;;;;22.90;20.67;;;;;;;;;;5045275;28;20467;-73
2021/06/30 08:45:33;;;;;;;23.03;20.63;;;;;;;;;;5050066;28;20419;-72
2021/06/30 08:47:59;;;;;;;23.00;20.50;;;;;;;;;;5049710;28;20541;-73
2021/06/30 08:50:25;;;;;;;23.23;20.63;;;;;;;;;;5049940;28;21009;-72
2021/06/30 08:52:52;;;;;;;22.00;19.70;;;;;;;;;;5049836;28;20780;-72
2021/06/30 08:55:18;;;;;;;23.50;21.10;;;;;;;;;;5049988;28;20510;-72
2021/06/30 08:57:46;;;;;;;22.40;20.00;;;;;;;;;;5049453;28;20904;-72
2021/06/30 09:00:12;;;;;;;23.63;21.20;;;;;;;;;;5049730;28;20469;-73
2021/06/30 09:02:38;;;;;;;23.50;21.20;;;;;;;;;;5049486;28;20537;-71
2021/06/30 09:07:45;;;;;;;20.77;18.73;;;;;;;;;;5049227;28;20764;-72
2021/06/30 09:10:31;;;;;;;21.97;19.00;;;;;;;;;;5049095;28;20435;-73
2021/06/30 09:12:57;;;;;;;19.93;17.17;;;;;;;;;;5049396;28;20443;-73
2021/06/30 09:15:29;;;;;;;18.70;16.80;;;;;;;;;;5049522;28;20439;-72
2021/06/30 09:17:55;;;;;;;18.83;16.93;;;;;;;;;;5049109;28;20576;-73
2021/06/30 09:20:21;;;;;;;18.13;16.43;;;;;;;;;;5046125;28;20450;-73
2021/06/30 09:22:49;;;;;;;17.37;15.67;;;;;;;;;;5049098;28;20513;-72
2021/06/30 09:25:25;;;;;;;18.37;16.27;;;;;;;;;;5049601;28;20423;-73
2021/06/30 09:27:51;;;;;;;15.87;14.27;;;;;;;;;;5048464;28;20404;-72
2021/06/30 09:30:18;;;;;;;15.13;13.63;;;;;;;;;;5049491;28;20823;-71
2021/06/30 09:32:54;;;;;;;14.87;13.37;;;;;;;;;;5049329;28;20915;-71
2021/06/30 09:35:21;;;;;;;14.20;13.00;;;;;;;;;;5049312;28;20601;-73
2021/06/30 09:37:48;;;;;;;13.50;12.20;;;;;;;;;;5049112;28;20430;-71
2021/06/30 09:40:17;;;;;;;14.37;13.00;;;;;;;;;;5049138;28;20795;-73
2021/06/30 09:42:44;;;;;;;13.50;12.20;;;;;;;;;;5049268;28;20455;-72
2021/06/30 09:45:14;;;;;;;15.93;14.43;;;;;;;;;;5049374;28;20420;-73
2021/06/30 09:47:44;;;;;;;16.00;14.47;;;;;;;;;;5049118;28;20426;-72
2021/06/30 09:50:10;;;;;;;15.30;13.90;;;;;;;;;;5048778;28;20496;-72
2021/06/30 09:52:40;;;;;;;14.70;13.20;;;;;;;;;;5048894;28;20776;-71
2021/06/30 09:55:22;;;;;;;15.53;14.00;;;;;;;;;;5049272;28;20514;-73
2021/06/30 09:57:48;;;;;;;22.03;19.87;;;;;;;;;;5048808;28;20434;-72
2021/06/30 10:00:14;;;;;;;15.67;14.17;;;;;;;;;;5048998;28;20451;-73
2021/06/30 10:02:40;;;;;;;14.80;13.50;;;;;;;;;;5048949;28;20897;-74
2021/06/30 10:05:08;;;;;;;14.93;13.53;;;;;;;;;;5067037;28;20506;-73
2021/06/30 10:07:34;;;;;;;15.67;13.60;;;;;;;;;;5052751;28;20462;-74
2021/06/30 10:10:01;;;;;;;15.80;14.33;;;;;;;;;;5052824;28;20466;-72
2021/06/30 10:12:29;;;;;;;17.83;13.97;;;;;;;;;;5053020;28;20454;-73
2021/06/30 10:14:55;;;;;;;13.90;12.50;;;;;;;;;;5052958;28;20434;-71
2021/06/30 10:17:22;;;;;;;16.50;15.00;;;;;;;;;;5052748;28;20410;-73
2021/06/30 10:19:49;;;;;;;15.70;12.87;;;;;;;;;;5052711;28;20839;-74
2021/06/30 10:22:16;;;;;;;13.20;12.00;;;;;;;;;;5052982;28;20465;-73
2021/06/30 10:24:42;;;;;;;15.07;13.57;;;;;;;;;;5052649;28;20891;-74
2021/06/30 10:27:09;;;;;;;13.00;11.70;;;;;;;;;;5052553;28;20764;-75
2021/06/30 10:29:37;;;;;;;12.57;11.37;;;;;;;;;;5052645;28;20443;-72
2021/06/30 10:32:06;;;;;;;13.47;12.07;;;;;;;;;;5052765;28;20453;-73
2021/06/30 10:34:37;;;;;;;12.90;11.70;;;;;;;;;;5052338;28;20419;-73
2021/06/30 10:37:03;;;;;;;13.20;12.00;;;;;;;;;;5052352;28;20419;-73
2021/06/30 10:39:36;;;;;;;13.30;11.90;;;;;;;;;;5052650;28;20435;-74
2021/06/30 10:42:33;;;;;;;12.50;11.33;;;;;;;;;;5052328;28;20879;-74
2021/06/30 10:45:00;;;;;;;13.27;11.93;;;;;;;;;;5031034;28;20478;-75
2021/06/30 10:47:34;;;;;;;13.03;11.50;;;;;;;;;;5040435;28;20412;-73
2021/06/30 10:50:20;;;;;;;12.33;11.17;;;;;;;;;;5052725;28;20442;-71
2021/06/30 10:52:46;;;;;;;12.60;11.27;;;;;;;;;;5052293;28;20419;-74
2021/06/30 10:55:38;;;;;;;11.50;10.40;;;;;;;;;;5052456;28;21072;-73
2021/06/30 10:58:25;;;;;;;12.13;10.97;;;;;;;;;;5050601;28;20443;-73
2021/06/30 11:01:04;;;;;;;12.27;10.43;;;;;;;;;;5052291;28;20419;-73
2021/06/30 11:03:30;;;;;;;11.83;10.63;;;;;;;;;;5052156;28;20458;-73
2021/06/30 11:06:20;;;;;;;12.63;11.50;;;;;;;;;;5052182;28;20416;-74
2021/06/30 11:09:06;;;;;;;11.40;10.40;;;;;;;;;;5051609;28;20435;-73
2021/06/30 11:11:33;;;;;;;11.10;10.10;;;;;;;;;;5050499;28;20411;-72
2021/06/30 11:13:59;;;;;;;11.00;9.90;;;;;;;;;;5052051;28;20415;-73
2021/06/30 11:16:37;;;;;;;10.30;9.30;;;;;;;;;;5051356;28;20498;-72
2021/06/30 11:19:04;;;;;;;11.00;9.90;;;;;;;;;;5052431;28;20441;-72
2021/06/30 11:21:50;;;;;;;10.17;9.17;;;;;;;;;;5051785;28;20419;-73
2021/06/30 11:27:13;;;;;;;12.03;10.83;;;;;;;;;;5045421;28;20768;-70
2021/06/30 11:29:42;;;;;;;10.80;9.90;;;;;;;;;;5051671;28;20924;-72
2021/06/30 11:32:09;;;;;;;10.43;9.33;;;;;;;;;;5050171;28;20444;-75
2021/06/30 11:34:39;;;;;;;10.67;9.57;;;;;;;;;;5051358;28;20416;-73
2021/06/30 11:37:06;;;;;;;10.90;9.90;;;;;;;;;;5051115;28;20430;-74
2021/06/30 11:39:32;;;;;;;11.40;10.30;;;;;;;;;;5051504;28;20489;-75
2021/06/30 11:41:59;;;;;;;13.07;10.50;;;;;;;;;;5051655;28;20415;-72
2021/06/30 11:44:36;;;;;;;10.40;9.50;;;;;;;;;;5048371;28;20462;-73
2021/06/30 11:47:04;;;;;;;9.67;8.87;;;;;;;;;;5051204;28;20435;-71
2021/06/30 11:49:30;;;;;;;9.50;8.70;;;;;;;;;;5051547;28;20912;-72
2021/06/30 11:52:01;;;;;;;10.20;9.17;;;;;;;;;;5051528;28;20454;-71
2021/06/30 11:54:30;;;;;;;10.43;9.50;;;;;;;;;;5051478;28;20420;-72
2021/06/30 11:56:56;;;;;;;11.47;10.30;;;;;;;;;;5050800;28;20428;-74
2021/06/30 11:59:26;;;;;;;11.33;10.23;;;;;;;;;;5051478;28;20464;-75
2021/06/30 12:01:53;;;;;;;11.80;10.60;;;;;;;;;;5050991;28;20423;-72
2021/06/30 12:04:24;;;;;;;12.23;11.10;;;;;;;;;;5047712;28;20471;-77
2021/06/30 12:07:04;;;;;;;13.10;11.80;;;;;;;;;;5050949;28;20776;-77
2021/06/30 12:09:31;;;;;;;12.53;11.37;;;;;;;;;;5051343;28;20438;-76
2021/06/30 12:11:58;;;;;;;13.90;12.50;;;;;;;;;;5051268;28;20461;-76
2021/06/30 12:14:26;;;;;;;14.07;12.80;;;;;;;;;;5050416;28;20923;-77
2021/06/30 12:16:52;;;;;;;14.70;13.20;;;;;;;;;;5050688;28;20481;-77
2021/06/30 12:19:19;;;;;;;13.63;12.23;;;;;;;;;;5051742;28;20467;-77
2021/06/30 12:21:46;;;;;;;15.57;14.10;;;;;;;;;;5051058;28;20565;-78
2021/06/30 12:24:17;;;;;;;14.47;12.90;;;;;;;;;;5050823;28;20566;-78
2021/06/30 12:26:55;;;;;;;15.30;13.70;;;;;;;;;;5049223;28;20416;-73
2021/06/30 12:29:21;;;;;;;16.33;14.53;;;;;;;;;;5046963;28;20443;-78
2021/06/30 12:31:47;;;;;;;17.07;14.57;;;;;;;;;;5041561;28;20412;-76
2021/06/30 12:34:14;;;;;;;16.03;14.53;;;;;;;;;;5049548;28;20419;-77
2021/06/30 12:36:42;;;;;;;15.17;13.40;;;;;;;;;;5050076;28;20416;-77
2021/06/30 12:39:17;;;;;;;14.13;12.63;;;;;;;;;;5050387;28;20781;-76
2021/06/30 12:41:54;;;;;;;13.40;12.10;;;;;;;;;;5048961;28;20431;-78
2021/06/30 12:44:20;;;;;;;13.50;12.30;;;;;;;;;;5048839;28;20987;-74
2021/06/30 12:46:46;;;;;;;14.00;12.70;;;;;;;;;;5049764;28;20411;-78
2021/06/30 12:49:16;;;;;;;14.67;13.27;;;;;;;;;;5050446;28;20431;-78
2021/06/30 12:51:44;;;;;;;13.07;11.97;;;;;;;;;;5050156;28;20423;-76
2021/06/30 12:54:10;;;;;;;12.93;11.67;;;;;;;;;;5050224;28;20419;-75
2021/06/30 12:56:42;;;;;;;13.70;12.50;;;;;;;;;;5049760;28;20423;-77
2021/06/30 12:59:15;;;;;;;13.20;12.00;;;;;;;;;;5049664;28;20935;-72
2021/06/30 13:01:42;;;;;;;12.87;11.63;;;;;;;;;;5048820;28;20466;-77
2021/06/30 13:04:09;;;;;;;13.20;11.90;;;;;;;;;;5049780;28;20555;-77
2021/06/30 13:06:36;;;;;;;12.60;11.50;;;;;;;;;;5049515;28;20510;-75
2021/06/30 13:09:02;;;;;;;13.80;12.50;;;;;;;;;;5049597;28;20435;-74
2021/06/30 13:11:29;;;;;;;13.50;11.70;;;;;;;;;;5049913;28;20930;-72
2021/06/30 13:14:05;;;;;;;13.13;11.93;;;;;;;;;;5049231;28;20427;-76
2021/06/30 13:16:33;;;;;;;14.77;12.77;;;;;;;;;;5049568;28;21013;-77
2021/06/30 13:19:00;;;;;;;13.10;11.90;;;;;;;;;;5049335;28;20439;-77
2021/06/30 13:21:28;;;;;;;12.83;11.57;;;;;;;;;;5049965;28;20435;-77
2021/06/30 13:23:59;;;;;;;13.90;12.50;;;;;;;;;;5049890;28;20473;-76
2021/06/30 13:26:47;;;;;;;14.20;12.80;;;;;;;;;;5049838;28;20823;-75
2021/06/30 13:35:19;;;;;;;14.27;12.80;;;;;;;;;;5040913;28;20414;-75
2021/06/30 13:37:46;;;;;;;14.73;13.10;;;;;;;;;;5049110;28;21120;-74
2021/06/30 13:40:12;;;;;;;15.33;13.87;;;;;;;;;;5049208;28;20427;-75
2021/06/30 13:42:38;;;;;;;14.97;13.43;;;;;;;;;;5049215;28;20502;-78
2021/06/30 13:45:05;;;;;;;14.50;12.73;;;;;;;;;;5047756;28;20446;-75
2021/06/30 13:47:31;;;;;;;15.37;12.83;;;;;;;;;;5048953;28;20419;-77
2021/06/30 13:49:57;;;;;;;17.20;15.27;;;;;;;;;;5048953;28;20443;-74
2021/06/30 13:52:23;;;;;;;14.90;13.20;;;;;;;;;;5049645;28;20761;-79
2021/06/30 13:54:49;;;;;;;17.30;15.17;;;;;;;;;;5047690;28;20419;-74
2021/06/30 13:57:15;;;;;;;16.70;15.00;;;;;;;;;;5049368;28;20423;-77
2021/06/30 13:59:41;;;;;;;16.70;14.30;;;;;;;;;;5049028;28;20462;-76
2021/06/30 14:02:07;;;;;;;15.70;14.20;;;;;;;;;;5049514;28;20788;-73
2021/06/30 14:04:33;;;;;;;15.60;13.77;;;;;;;;;;5049202;28;20494;-75
2021/06/30 14:06:59;;;;;;;16.07;13.83;;;;;;;;;;5048331;28;20553;-78
2021/06/30 14:09:25;;;;;;;15.10;13.60;;;;;;;;;;5049173;28;20427;-75
2021/06/30 14:11:51;;;;;;;17.10;13.80;;;;;;;;;;5049068;28;20903;-77
2021/06/30 14:14:17;;;;;;;14.73;12.87;;;;;;;;;;5049058;28;20415;-78
2021/06/30 14:16:43;;;;;;;14.80;13.20;;;;;;;;;;5047748;28;21026;-76
2021/06/30 14:19:09;;;;;;;15.30;13.70;;;;;;;;;;5048796;28;20499;-78
2021/06/30 14:21:35;;;;;;;14.77;13.30;;;;;;;;;;5049121;28;20753;-76
2021/06/30 14:24:01;;;;;;;13.30;11.70;;;;;;;;;;5048788;28;20495;-76
2021/06/30 14:26:27;;;;;;;12.43;11.23;;;;;;;;;;5047621;28;20451;-77
2021/06/30 14:28:53;;;;;;;13.43;11.73;;;;;;;;;;5047991;28;20879;-77
2021/06/30 14:31:19;;;;;;;15.50;12.23;;;;;;;;;;5047527;28;20443;-77